createdAt,value
2018-09-08T00:01:55.956Z,100184.94
2018-09-08T00:04:25.593Z,100189.31
2018-09-08T00:07:00.393Z,100188.94
2018-09-08T00:09:30.030Z,100179.05
2018-09-08T00:11:59.692Z,100181.72
2018-09-08T00:14:29.361Z,100180.03
2018-09-08T00:17:04.135Z,100181.38
2018-09-08T00:19:38.905Z,100177.34
2018-09-08T00:22:13.634Z,100178.97
2018-09-08T00:24:48.363Z,100183.25
2018-09-08T00:27:22.463Z,100186.88
2018-09-08T00:29:52.152Z,100176.47
2018-09-08T00:32:22.805Z,100183.37
2018-09-08T00:34:52.460Z,100186.64
2018-09-08T00:37:22.092Z,100189.27
2018-09-08T00:39:52.065Z,100182.73
2018-09-08T00:42:21.701Z,100190.79
2018-09-08T00:44:51.385Z,100189.55
2018-09-08T00:47:21.031Z,100188.71
2018-09-08T00:49:50.724Z,100181.31
2018-09-08T00:52:20.360Z,100194.13
2018-09-08T00:54:50.012Z,100188.16
2018-09-08T00:57:19.661Z,100182.66
2018-09-08T00:59:49.308Z,100179.04
2018-09-08T01:02:18.955Z,100186.73
2018-09-08T01:04:48.621Z,100182.36
2018-09-08T01:07:23.414Z,100185.91
2018-09-08T01:09:53.102Z,100186.71
2018-09-08T01:12:22.748Z,100183.20
2018-09-08T01:14:52.484Z,100185.48
2018-09-08T01:17:22.160Z,100181.63
2018-09-08T01:19:51.820Z,100174.48
2018-09-08T01:22:21.556Z,100180.03
2018-09-08T01:24:51.212Z,100188.59
2018-09-08T01:27:20.844Z,100186.90
2018-09-08T01:29:50.502Z,100185.83
2018-09-08T01:32:20.151Z,100190.45
2018-09-08T01:34:49.808Z,100189.11
2018-09-08T01:37:19.493Z,100186.20
2018-09-08T01:39:49.165Z,100196.72
2018-09-08T01:42:18.824Z,100195.09
2018-09-08T01:44:48.513Z,100200.28
2018-09-08T01:47:18.164Z,100197.09
2018-09-08T01:49:47.829Z,100203.68
2018-09-08T01:52:17.473Z,100197.63
2018-09-08T01:54:47.123Z,100201.64
2018-09-08T01:57:16.756Z,100203.16
2018-09-08T01:59:46.412Z,100207.53
2018-09-08T02:02:16.058Z,100202.33
2018-09-08T02:04:45.708Z,100207.02
2018-09-08T02:07:15.336Z,100198.14
2018-09-08T02:09:44.994Z,100190.20
2018-09-08T02:12:14.641Z,100207.69
2018-09-08T02:14:44.288Z,100196.13
2018-09-08T02:17:13.969Z,100200.66
2018-09-08T02:19:43.633Z,100199.31
2018-09-08T02:22:13.292Z,100198.77
2018-09-08T02:24:42.952Z,100198.25
2018-09-08T02:27:12.588Z,100198.48
2018-09-08T02:29:42.236Z,100197.78
2018-09-08T02:32:11.877Z,100193.76
2018-09-08T02:34:41.533Z,100187.52
2018-09-08T02:37:11.184Z,100195.38
2018-09-08T02:39:40.842Z,100188.84
2018-09-08T02:42:10.476Z,100189.86
2018-09-08T02:44:40.140Z,100187.18
2018-09-08T02:47:09.773Z,100177.33
2018-09-08T02:49:50.476Z,100173.94
2018-09-08T02:52:18.752Z,100179.63
2018-09-08T02:54:47.068Z,100179.77
2018-09-08T02:57:15.328Z,100187.56
2018-09-08T02:59:43.599Z,100196.30
2018-09-08T03:02:11.900Z,100185.41
2018-09-08T03:04:40.168Z,100185.05
2018-09-08T03:07:13.982Z,100185.02
2018-09-08T03:09:44.262Z,100182.87
2018-09-08T03:12:12.608Z,100186.53
2018-09-08T03:14:40.896Z,100187.38
2018-09-08T03:17:09.174Z,100187.20
2018-09-08T03:19:37.481Z,100183.85
2018-09-08T03:22:05.748Z,100182.16
2018-09-08T03:24:34.025Z,100186.70
2018-09-08T03:27:02.320Z,100198.09
2018-09-08T03:29:30.596Z,100205.66
2018-09-08T03:31:58.904Z,100207.66
2018-09-08T03:34:27.181Z,100206.01
2018-09-08T03:36:55.455Z,100212.52
2018-09-08T03:39:23.741Z,100203.51
2018-09-08T03:41:52.004Z,100202.67
2018-09-08T03:44:20.316Z,100206.69
2018-09-08T03:46:48.588Z,100207.55
2018-09-08T03:49:16.858Z,100211.74
2018-09-08T03:51:45.156Z,100215.75
2018-09-08T03:54:13.424Z,100214.41
2018-09-08T03:56:41.741Z,100219.59
2018-09-08T03:59:10.021Z,100219.53
2018-09-08T04:01:38.301Z,100226.22
2018-09-08T04:04:07.953Z,100224.52
2018-09-08T04:06:37.608Z,100227.66
2018-09-08T04:09:09.666Z,100214.11
2018-09-08T04:11:39.564Z,100217.52
2018-09-08T04:14:10.416Z,100216.39
2018-09-08T04:16:40.044Z,100222.38
2018-09-08T04:19:09.708Z,100220.22
2018-09-08T04:21:39.337Z,100223.52
2018-09-08T04:24:09.118Z,100232.06
2018-09-08T04:26:38.643Z,100233.24
2018-09-08T04:29:08.288Z,100235.02
2018-09-08T04:31:37.916Z,100236.13
2018-09-08T04:34:07.579Z,100241.16
2018-09-08T04:36:37.243Z,100233.27
2018-09-08T04:39:09.304Z,100236.31
2018-09-08T04:41:39.045Z,100235.48
2018-09-08T04:44:08.736Z,100239.50
2018-09-08T04:46:38.380Z,100238.00
2018-09-08T04:49:08.044Z,100237.63
2018-09-08T04:51:37.987Z,100241.92
2018-09-08T04:54:07.677Z,100247.60
2018-09-08T04:56:37.305Z,100247.25
2018-09-08T04:59:06.995Z,100258.84
2018-09-08T05:01:36.633Z,100256.47
2018-09-08T05:04:06.336Z,100260.23
2018-09-08T05:06:35.961Z,100262.50
2018-09-08T05:09:09.000Z,100264.88
2018-09-08T05:11:38.588Z,100261.37
2018-09-08T05:14:08.244Z,100270.22
2018-09-08T05:16:38.152Z,100276.38
2018-09-08T05:19:07.810Z,100271.92
2018-09-08T05:21:37.525Z,100269.24
2018-09-08T05:24:07.237Z,100278.37
2018-09-08T05:26:36.882Z,100280.38
2018-09-08T05:29:06.536Z,100278.53
2018-09-08T05:31:36.186Z,100274.29
2018-09-08T05:34:05.892Z,100288.59
2018-09-08T05:36:35.524Z,100283.25
2018-09-08T05:39:06.209Z,100286.48
2018-09-08T05:41:36.098Z,100298.37
2018-09-08T05:44:05.788Z,100300.59
2018-09-08T05:46:35.429Z,100301.93
2018-09-08T05:49:05.162Z,100299.97
2018-09-08T05:51:34.797Z,100299.16
2018-09-08T05:54:04.489Z,100304.72
2018-09-08T05:56:34.123Z,100304.89
2018-09-08T05:59:03.772Z,100310.44
2018-09-08T06:01:33.409Z,100307.89
2018-09-08T06:04:03.068Z,100304.22
2018-09-08T06:06:32.719Z,100300.72
2018-09-08T06:09:02.404Z,100304.92
2018-09-08T06:11:32.034Z,100316.20
2018-09-08T06:14:01.732Z,100318.92
2018-09-08T06:16:31.366Z,100319.92
2018-09-08T06:19:01.520Z,100310.52
2018-09-08T06:21:31.776Z,100314.72
2018-09-08T06:24:01.452Z,100323.95
2018-09-08T06:26:31.192Z,100323.83
2018-09-08T06:29:00.824Z,100325.02
2018-09-08T06:31:30.485Z,100319.80
2018-09-08T06:34:00.200Z,100325.83
2018-09-08T06:36:29.977Z,100331.04
2018-09-08T06:38:59.741Z,100332.20
2018-09-08T06:41:29.376Z,100333.52
2018-09-08T06:43:59.052Z,100329.48
2018-09-08T06:46:28.693Z,100338.19
2018-09-08T06:48:58.353Z,100336.17
2018-09-08T06:51:28.126Z,100341.00
2018-09-08T06:53:57.835Z,100341.81
2018-09-08T06:56:27.493Z,100337.22
2018-09-08T06:58:57.159Z,100332.81
2018-09-08T07:01:26.837Z,100338.77
2018-09-08T07:03:56.472Z,100328.59
2018-09-08T07:06:26.112Z,100331.62
2018-09-08T07:08:55.773Z,100338.29
2018-09-08T07:11:25.404Z,100333.24
2018-09-08T07:13:55.113Z,100341.81
2018-09-08T07:16:24.769Z,100344.29
2018-09-08T07:18:54.442Z,100339.02
2018-09-08T07:21:24.083Z,100342.20
2018-09-08T07:23:53.728Z,100338.01
2018-09-08T07:26:23.378Z,100338.47
2018-09-08T07:28:53.788Z,100340.15
2018-09-08T07:31:23.436Z,100334.91
2018-09-08T07:33:53.076Z,100338.73
2018-09-08T07:36:22.796Z,100337.80
2018-09-08T07:38:52.580Z,100338.91
2018-09-08T07:41:22.219Z,100335.98
2018-09-08T07:43:51.912Z,100345.66
2018-09-08T07:46:21.588Z,100339.41
2018-09-08T07:48:51.236Z,100339.69
2018-09-08T07:51:20.863Z,100348.81
2018-09-08T07:53:50.577Z,100352.17
2018-09-08T07:56:20.188Z,100355.39
2018-09-08T07:58:49.991Z,100356.59
2018-09-08T08:01:19.635Z,100362.45
2018-09-08T08:03:49.316Z,100364.97
2018-09-08T08:06:18.976Z,100362.09
2018-09-08T08:08:48.648Z,100360.16
2018-09-08T08:11:18.307Z,100365.91
2018-09-08T08:13:47.994Z,100356.80
2018-09-08T08:16:17.721Z,100360.65
2018-09-08T08:18:47.395Z,100369.22
2018-09-08T08:21:17.061Z,100366.08
2018-09-08T08:23:46.746Z,100366.66
2018-09-08T08:26:16.378Z,100365.59
2018-09-08T08:28:46.040Z,100367.98
2018-09-08T08:31:15.791Z,100355.73
2018-09-08T08:33:45.440Z,100361.48
2018-09-08T08:36:15.129Z,100364.20
2018-09-08T08:38:44.805Z,100358.79
2018-09-08T08:41:14.489Z,100367.28
2018-09-08T08:43:44.193Z,100365.39
2018-09-08T08:46:13.885Z,100363.01
2018-09-08T08:48:43.563Z,100371.61
2018-09-08T08:51:24.248Z,100366.91
2018-09-08T08:54:05.037Z,100375.33
2018-09-08T08:56:34.683Z,100373.36
2018-09-08T08:59:04.377Z,100371.33
2018-09-08T09:01:34.022Z,100376.47
2018-09-08T09:04:03.735Z,100373.11
2018-09-08T09:06:33.400Z,100375.86
2018-09-08T09:09:03.101Z,100371.66
2018-09-08T09:11:33.059Z,100367.70
2018-09-08T09:14:02.543Z,100369.63
2018-09-08T09:16:32.204Z,100363.59
2018-09-08T09:19:32.152Z,100356.55
2018-09-08T09:22:13.308Z,100366.16
2018-09-08T09:24:51.073Z,100366.16
2018-09-08T09:27:20.497Z,100363.03
2018-09-08T09:29:50.180Z,100367.84
2018-09-08T09:32:19.876Z,100366.66
2018-09-08T09:34:49.536Z,100373.16
2018-09-08T09:37:19.267Z,100369.70
2018-09-08T09:39:49.369Z,100372.87
2018-09-08T09:42:19.061Z,100372.05
2018-09-08T09:44:48.747Z,100362.43
2018-09-08T09:47:18.496Z,100370.36
2018-09-08T09:49:48.144Z,100372.32
2018-09-08T09:52:17.829Z,100378.48
2018-09-08T09:54:47.492Z,100372.17
2018-09-08T09:57:17.157Z,100374.31
2018-09-08T09:59:46.832Z,100376.36
2018-09-08T10:02:46.930Z,100376.27
2018-09-08T10:05:19.257Z,100369.03
2018-09-08T10:07:49.503Z,100374.02
2018-09-08T10:10:23.489Z,100377.09
2018-09-08T10:12:53.156Z,100378.52
2018-09-08T10:15:22.821Z,100372.23
2018-09-08T10:17:52.548Z,100370.88
2018-09-08T10:20:23.286Z,100365.13
2018-09-08T10:22:53.028Z,100366.91
2018-09-08T10:25:22.717Z,100362.51
2018-09-08T10:27:52.428Z,100361.24
2018-09-08T10:30:22.125Z,100354.38
2018-09-08T10:32:51.861Z,100364.30
2018-09-08T10:35:21.534Z,100364.08
2018-09-08T10:37:51.264Z,100362.03
2018-09-08T10:40:20.940Z,100357.38
2018-09-08T10:42:50.633Z,100352.74
2018-09-08T10:45:20.372Z,100353.78
2018-09-08T10:47:50.070Z,100351.52
2018-09-08T10:50:19.766Z,100346.75
2018-09-08T10:52:49.736Z,100354.63
2018-09-08T10:55:19.454Z,100354.23
2018-09-08T10:57:49.125Z,100356.23
2018-09-08T11:00:18.795Z,100355.91
2018-09-08T11:02:48.731Z,100352.88
2018-09-08T11:05:18.180Z,100357.42
2018-09-08T11:07:47.880Z,100352.83
2018-09-08T11:10:17.583Z,100355.75
2018-09-08T11:12:47.245Z,100348.33
2018-09-08T11:15:16.929Z,100345.42
2018-09-08T11:17:46.561Z,100350.67
2018-09-08T11:20:16.254Z,100344.83
2018-09-08T11:22:45.916Z,100343.39
2018-09-08T11:25:15.625Z,100344.56
2018-09-08T11:27:45.372Z,100348.01
2018-09-08T11:30:15.053Z,100345.42
2018-09-08T11:32:44.721Z,100349.16
2018-09-08T11:35:14.438Z,100339.57
2018-09-08T11:37:44.122Z,100340.33
2018-09-08T11:40:13.816Z,100345.64
2018-09-08T11:42:43.544Z,100337.44
2018-09-08T11:45:13.244Z,100344.92
2018-09-08T11:47:43.008Z,100345.95
2018-09-08T11:50:12.715Z,100342.91
2018-09-08T11:52:42.567Z,100351.77
2018-09-08T11:55:12.247Z,100351.08
2018-09-08T11:57:41.904Z,100343.53
2018-09-08T12:00:11.625Z,100341.69
2018-09-08T12:02:41.260Z,100350.44
2018-09-08T12:05:10.939Z,100350.25
2018-09-08T12:07:40.560Z,100351.19
2018-09-08T12:10:10.216Z,100346.77
2018-09-08T12:12:39.867Z,100352.33
2018-09-08T12:15:09.555Z,100344.70
2018-09-08T12:17:39.222Z,100348.20
2018-09-08T12:20:08.892Z,100354.06
2018-09-08T12:22:38.515Z,100352.50
2018-09-08T12:25:08.250Z,100352.37
2018-09-08T12:27:37.910Z,100347.97
2018-09-08T12:30:07.688Z,100345.73
2018-09-08T12:32:37.395Z,100339.30
2018-09-08T12:35:07.113Z,100334.94
2018-09-08T12:37:36.781Z,100339.27
2018-09-08T12:40:06.540Z,100339.95
2018-09-08T12:42:36.292Z,100341.97
2018-09-08T12:45:06.637Z,100339.18
2018-09-08T12:47:36.255Z,100341.89
2018-09-08T12:50:05.951Z,100344.05
2018-09-08T12:52:35.610Z,100337.02
2018-09-08T12:55:05.367Z,100342.08
2018-09-08T12:57:34.998Z,100341.48
2018-09-08T13:00:04.768Z,100338.59
2018-09-08T13:02:34.625Z,100334.75
2018-09-08T13:05:04.316Z,100339.30
2018-09-08T13:07:33.976Z,100328.77
2018-09-08T13:10:03.647Z,100333.38
2018-09-08T13:12:33.331Z,100331.62
2018-09-08T13:15:02.995Z,100326.94
2018-09-08T13:17:32.636Z,100325.66
2018-09-08T13:20:02.380Z,100327.84
2018-09-08T13:22:32.024Z,100328.73
2018-09-08T13:25:01.660Z,100327.93
2018-09-08T13:27:31.284Z,100321.92
2018-09-08T13:30:00.945Z,100316.94
2018-09-08T13:32:30.576Z,100309.14
2018-09-08T13:35:00.257Z,100313.02
2018-09-08T13:37:30.003Z,100314.31
2018-09-08T13:39:59.760Z,100314.56
2018-09-08T13:42:29.387Z,100309.72
2018-09-08T13:44:59.093Z,100316.25
2018-09-08T13:47:28.846Z,100314.83
2018-09-08T13:49:59.008Z,100314.77
2018-09-08T13:52:28.664Z,100317.27
2018-09-08T13:54:58.421Z,100315.34
2018-09-08T13:57:28.069Z,100313.73
2018-09-08T13:59:57.736Z,100315.27
2018-09-08T14:02:27.456Z,100307.98
2018-09-08T14:04:57.120Z,100317.48
2018-09-08T14:07:26.763Z,100310.04
2018-09-08T14:09:56.432Z,100303.17
2018-09-08T14:12:26.077Z,100304.16
2018-09-08T14:14:55.742Z,100308.08
2018-09-08T14:17:25.388Z,100305.20
2018-09-08T14:19:55.063Z,100302.34
2018-09-08T14:22:24.727Z,100294.17
2018-09-08T14:24:54.397Z,100294.36
2018-09-08T14:27:24.020Z,100295.31
2018-09-08T14:29:53.701Z,100293.01
2018-09-08T14:32:23.379Z,100283.83
2018-09-08T14:34:53.035Z,100278.41
2018-09-08T14:37:22.708Z,100282.53
2018-09-08T14:39:52.371Z,100290.00
2018-09-08T14:42:22.009Z,100283.52
2018-09-08T14:44:51.716Z,100285.98
2018-09-08T14:47:21.415Z,100285.30
2018-09-08T14:49:51.432Z,100289.17
2018-09-08T14:52:21.082Z,100287.66
2018-09-08T14:54:50.772Z,100279.48
2018-09-08T14:57:20.401Z,100280.84
2018-09-08T14:59:50.059Z,100276.91
2018-09-08T15:02:19.701Z,100279.64
2018-09-08T15:04:49.531Z,100284.93
2018-09-08T15:07:19.032Z,100286.30
2018-09-08T15:09:48.704Z,100281.16
2018-09-08T15:12:18.359Z,100283.80
2018-09-08T15:14:48.010Z,100285.09
2018-09-08T15:17:17.648Z,100286.21
2018-09-08T15:19:47.306Z,100288.39
2018-09-08T15:22:16.985Z,100287.41
2018-09-08T15:24:46.656Z,100281.25
2018-09-08T15:27:16.293Z,100278.25
2018-09-08T15:29:45.984Z,100269.45
2018-09-08T15:32:15.616Z,100270.10
2018-09-08T15:34:45.298Z,100268.97
2018-09-08T15:37:14.962Z,100278.50
2018-09-08T15:39:44.639Z,100284.08
2018-09-08T15:42:14.312Z,100282.80
2018-09-08T15:44:44.019Z,100270.58
2018-09-08T15:47:13.674Z,100273.53
2018-09-08T15:49:43.341Z,100270.33
2018-09-08T15:52:12.985Z,100272.91
2018-09-08T15:54:42.689Z,100279.55
2018-09-08T15:57:12.344Z,100272.62
2018-09-08T15:59:42.016Z,100272.89
2018-09-08T16:02:11.672Z,100273.03
2018-09-08T16:04:41.345Z,100271.89
2018-09-08T16:07:10.993Z,100271.55
2018-09-08T16:09:40.686Z,100275.58
2018-09-08T16:12:10.344Z,100278.21
2018-09-08T16:14:40.052Z,100279.03
2018-09-08T16:17:09.921Z,100276.17
2018-09-08T16:19:39.624Z,100281.61
2018-09-08T16:22:09.291Z,100286.20
2018-09-08T16:24:38.962Z,100287.78
2018-09-08T16:27:08.618Z,100279.31
2018-09-08T16:29:38.321Z,100283.02
2018-09-08T16:32:08.188Z,100275.59
2018-09-08T16:34:37.872Z,100284.30
2018-09-08T16:37:07.554Z,100282.03
2018-09-08T16:39:37.213Z,100293.41
2018-09-08T16:42:07.105Z,100292.62
2018-09-08T16:44:36.804Z,100292.85
2018-09-08T16:47:06.487Z,100289.41
2018-09-08T16:49:36.157Z,100293.43
2018-09-08T16:52:05.963Z,100295.30
2018-09-08T16:54:35.883Z,100291.56
2018-09-08T16:57:05.663Z,100287.11
2018-09-08T16:59:35.328Z,100287.87
2018-09-08T17:02:05.037Z,100288.52
2018-09-08T17:04:34.705Z,100293.30
2018-09-08T17:07:04.429Z,100292.82
2018-09-08T17:09:34.198Z,100293.52
2018-09-08T17:12:03.868Z,100291.68
2018-09-08T17:14:33.528Z,100293.88
2018-09-08T17:17:03.188Z,100292.45
2018-09-08T17:19:32.846Z,100291.11
2018-09-08T17:22:02.515Z,100299.12
2018-09-08T17:24:32.171Z,100309.17
2018-09-08T17:27:01.833Z,100307.62
2018-09-08T17:29:31.480Z,100306.55
2018-09-08T17:32:01.175Z,100308.42
2018-09-08T17:34:30.830Z,100301.44
2018-09-08T17:37:00.532Z,100306.26
2018-09-08T17:39:30.180Z,100307.72
2018-09-08T17:41:59.852Z,100313.90
2018-09-08T17:44:29.524Z,100317.87
2018-09-08T17:46:59.208Z,100317.02
2018-09-08T17:49:28.895Z,100331.03
2018-09-08T17:51:58.614Z,100336.64
2018-09-08T17:54:28.244Z,100339.36
2018-09-08T17:56:57.921Z,100340.61
2018-09-08T17:59:27.563Z,100340.81
2018-09-08T18:01:57.717Z,100334.03
2018-09-08T18:04:27.365Z,100336.43
2018-09-08T18:06:57.056Z,100336.33
2018-09-08T18:09:26.688Z,100338.72
2018-09-08T18:11:56.398Z,100330.16
2018-09-08T18:14:26.050Z,100331.94
2018-09-08T18:16:55.728Z,100336.33
2018-09-08T18:19:25.392Z,100338.61
2018-09-08T18:21:55.076Z,100345.61
2018-09-08T18:24:24.704Z,100348.20
2018-09-08T18:26:54.356Z,100351.23
2018-09-08T18:29:24.004Z,100354.12
2018-09-08T18:31:53.688Z,100353.52
2018-09-08T18:34:23.360Z,100362.03
2018-09-08T18:36:53.041Z,100363.59
2018-09-08T18:39:22.731Z,100369.95
2018-09-08T18:41:52.404Z,100374.50
2018-09-08T18:44:22.064Z,100375.63
2018-09-08T18:46:51.756Z,100379.26
2018-09-08T18:49:21.492Z,100379.50
2018-09-08T18:51:51.509Z,100374.88
2018-09-08T18:54:21.185Z,100383.55
2018-09-08T18:56:50.886Z,100383.57
2018-09-08T18:59:20.529Z,100384.90
2018-09-08T19:01:50.240Z,100388.02
2018-09-08T19:04:19.881Z,100390.41
2018-09-08T19:06:49.603Z,100386.93
2018-09-08T19:09:19.252Z,100390.64
2018-09-08T19:11:48.989Z,100389.58
2018-09-08T19:14:23.866Z,100381.95
2018-09-08T19:16:53.533Z,100382.66
2018-09-08T19:19:23.180Z,100370.64
2018-09-08T19:21:52.883Z,100379.13
2018-09-08T19:24:27.636Z,100367.14
2018-09-08T19:26:57.357Z,100371.45
2018-09-08T19:29:32.096Z,100369.52
2018-09-08T19:32:01.749Z,100369.39
2018-09-08T19:34:31.387Z,100367.19
2018-09-08T19:37:01.065Z,100369.41
2018-09-08T19:39:30.768Z,100370.82
2018-09-08T19:42:00.445Z,100369.06
2018-09-08T19:44:30.141Z,100372.70
2018-09-08T19:47:05.097Z,100373.66
2018-09-08T19:49:35.003Z,100376.89
2018-09-08T19:52:06.952Z,100375.91
2018-09-08T19:54:36.597Z,100374.30
2018-09-08T19:57:11.306Z,100381.15
2018-09-08T19:59:40.952Z,100371.78
2018-09-08T20:02:10.760Z,100380.36
2018-09-08T20:04:40.333Z,100383.13
2018-09-08T20:07:10.002Z,100382.41
2018-09-08T20:09:39.714Z,100386.55
2018-09-08T20:12:09.349Z,100394.57
2018-09-08T20:14:39.016Z,100410.92
2018-09-08T20:17:08.728Z,100407.45
2018-09-08T20:19:38.559Z,100404.76
2018-09-08T20:22:10.084Z,100403.73
2018-09-08T20:24:39.802Z,100393.05
2018-09-08T20:27:09.490Z,100393.13
2018-09-08T20:29:39.121Z,100399.20
2018-09-08T20:32:08.792Z,100396.09
2018-09-08T20:34:38.449Z,100396.02
2018-09-08T20:37:08.145Z,100389.75
2018-09-08T20:39:37.784Z,100395.03
2018-09-08T20:42:07.515Z,100396.30
2018-09-08T20:44:37.218Z,100388.94
2018-09-08T20:47:06.949Z,100393.89
2018-09-08T20:49:36.596Z,100383.61
2018-09-08T20:52:06.446Z,100386.80
2018-09-08T20:54:36.093Z,100387.66
2018-09-08T20:57:05.877Z,100390.62
2018-09-08T20:59:35.524Z,100389.56
2018-09-08T21:02:05.219Z,100389.13
2018-09-08T21:04:34.878Z,100390.64
2018-09-08T21:07:04.553Z,100395.80
2018-09-08T21:09:34.201Z,100397.84
2018-09-08T21:12:03.921Z,100395.97
2018-09-08T21:14:33.568Z,100391.17
2018-09-08T21:17:03.240Z,100393.80
2018-09-08T21:19:32.957Z,100391.09
2018-09-08T21:22:02.640Z,100387.87
2018-09-08T21:24:32.293Z,100383.75
2018-09-08T21:27:01.976Z,100389.77
2018-09-08T21:29:31.608Z,100394.15
2018-09-08T21:32:01.270Z,100398.39
2018-09-08T21:34:30.911Z,100404.64
2018-09-08T21:37:00.600Z,100406.87
2018-09-08T21:39:30.253Z,100402.69
2018-09-08T21:41:59.914Z,100393.73
2018-09-08T21:44:29.613Z,100393.64
2018-09-08T21:46:59.277Z,100388.48
2018-09-08T21:49:28.922Z,100394.72
2018-09-08T21:51:58.624Z,100401.41
2018-09-08T21:54:28.291Z,100400.48
2018-09-08T21:56:57.944Z,100399.73
2018-09-08T21:59:27.616Z,100398.36
2018-09-08T22:01:57.344Z,100400.69
2018-09-08T22:04:26.986Z,100403.05
2018-09-08T22:06:56.665Z,100407.88
2018-09-08T22:09:26.308Z,100403.00
2018-09-08T22:11:55.933Z,100396.73
2018-09-08T22:14:25.611Z,100389.12
2018-09-08T22:16:55.256Z,100390.00
2018-09-08T22:19:24.917Z,100398.48
2018-09-08T22:21:54.612Z,100416.69
2018-09-08T22:24:24.260Z,100414.27
2018-09-08T22:26:53.917Z,100411.77
2018-09-08T22:29:23.627Z,100401.17
2018-09-08T22:31:58.690Z,100395.33
2018-09-08T22:34:28.389Z,100393.65
2018-09-08T22:36:58.028Z,100387.14
2018-09-08T22:39:27.668Z,100383.28
2018-09-08T22:41:57.347Z,100389.60
2018-09-08T22:44:27.027Z,100397.91
2018-09-08T22:46:56.684Z,100394.56
2018-09-08T22:49:26.372Z,100388.55
2018-09-08T22:51:56.020Z,100389.41
2018-09-08T22:54:25.664Z,100395.00
2018-09-08T22:56:55.403Z,100384.82
2018-09-08T22:59:25.047Z,100392.45
2018-09-08T23:01:54.677Z,100389.02
2018-09-08T23:04:24.369Z,100401.14
2018-09-08T23:06:54.004Z,100409.34
2018-09-08T23:09:23.675Z,100406.83
2018-09-08T23:11:53.344Z,100405.05
2018-09-08T23:14:22.992Z,100407.75
2018-09-08T23:16:52.629Z,100400.79
2018-09-08T23:19:22.325Z,100397.89
2018-09-08T23:21:51.978Z,100409.07
2018-09-08T23:24:21.635Z,100409.45
2018-09-08T23:26:51.352Z,100417.21
2018-09-08T23:29:21.001Z,100428.51
2018-09-08T23:31:50.677Z,100430.34
2018-09-08T23:34:20.400Z,100434.05
2018-09-08T23:36:50.053Z,100441.31
2018-09-08T23:39:19.700Z,100434.20
2018-09-08T23:41:49.389Z,100440.01
2018-09-08T23:44:19.109Z,100437.27
2018-09-08T23:46:48.754Z,100439.00
2018-09-08T23:49:18.440Z,100436.97
2018-09-08T23:51:48.112Z,100442.70
2018-09-08T23:54:17.747Z,100433.27
2018-09-08T23:56:47.435Z,100427.23
2018-09-08T23:59:17.129Z,100429.78
